Time;durP1;ratioP1;P1;durP2;ratioP2;P2;SDS_P1;SDS_P2;PMS_P1;PMS_P2;Temp;Humidity;BMP_temperature;BMP_pressure;BME280_temperature;BME280_humidity;BME280_pressure;Samples;Min_cycle;Max_cycle;Signal;HPM_P1;HPM_P2
2023/06/06 00:00:24;;;;;;;10.40;3.50;;;;;;;10.23;85.94;100453.57;105985;1257;59228;-74
2023/06/06 00:03:31;;;;;;;9.30;3.30;;;;;;;10.22;86.67;100453.69;106105;1258;74046;-71
2023/06/06 00:06:20;;;;;;;8.30;3.40;;;;;;;10.21;86.74;100455.69;105877;1260;69545;-71
2023/06/06 00:09:07;;;;;;;8.40;2.80;;;;;;;10.20;87.09;100453.98;105657;1259;72613;-74
2023/06/06 00:11:54;;;;;;;8.30;3.00;;;;;;;10.19;87.65;100450.63;105676;1262;59454;-74
2023/06/06 00:14:43;;;;;;;8.40;3.30;;;;;;;10.19;88.14;100448.02;105637;1254;60076;-73
2023/06/06 00:17:31;;;;;;;11.00;3.00;;;;;;;10.19;88.49;100446.61;105548;1257;72896;-73
2023/06/06 00:20:19;;;;;;;8.70;3.30;;;;;;;10.18;88.17;100446.48;105653;1258;65814;-74
2023/06/06 00:23:06;;;;;;;8.00;3.00;;;;;;;10.19;88.31;100445.52;105497;1262;72401;-71
2023/06/06 00:25:53;;;;;;;7.70;3.30;;;;;;;10.20;87.62;100444.40;105732;1256;59350;-74
2023/06/06 00:28:40;;;;;;;10.80;3.70;;;;;;;10.22;87.78;100444.95;105475;1256;59395;-72
2023/06/06 00:31:27;;;;;;;7.90;3.00;;;;;;;10.22;87.50;100443.89;105414;1259;70218;-73
2023/06/06 00:34:13;;;;;;;9.10;3.40;;;;;;;10.29;86.96;100443.98;105536;1257;66425;-72
2023/06/06 00:37:00;;;;;;;8.60;3.40;;;;;;;10.31;86.98;100445.75;105531;1256;72662;-72
2023/06/06 00:39:47;;;;;;;8.70;3.10;;;;;;;10.31;86.16;100437.59;105400;1261;59341;-71
2023/06/06 00:42:34;;;;;;;10.30;3.30;;;;;;;10.31;85.71;100441.67;105401;1256;60048;-71
2023/06/06 00:45:21;;;;;;;8.40;3.10;;;;;;;10.29;85.78;100438.42;105521;1257;69879;-72
2023/06/06 00:48:11;;;;;;;10.10;3.60;;;;;;;10.23;85.86;100430.91;105509;1253;67795;-70
2023/06/06 00:50:59;;;;;;;8.90;3.50;;;;;;;10.27;85.65;100438.56;105757;1258;72317;-73
2023/06/06 00:53:46;;;;;;;11.70;3.50;;;;;;;10.26;85.85;100435.86;105699;1254;60092;-71
2023/06/06 00:56:36;;;;;;;11.00;3.20;;;;;;;10.26;85.54;100435.65;105638;1257;59332;-73
2023/06/06 00:59:24;;;;;;;9.10;3.20;;;;;;;10.27;85.49;100432.95;105679;1253;71125;-72
2023/06/06 01:02:17;;;;;;;9.20;3.50;;;;;;;10.27;85.27;100438.27;105635;1253;69649;-71
2023/06/06 01:05:08;;;;;;;9.30;3.20;;;;;;;10.26;85.87;100437.25;105611;1254;71377;-72
2023/06/06 01:07:58;;;;;;;7.60;3.00;;;;;;;10.24;85.82;100436.52;105561;1259;59278;-70
2023/06/06 01:10:46;;;;;;;10.10;3.00;;;;;;;10.21;85.63;100437.02;105786;1259;59398;-69
2023/06/06 01:13:56;;;;;;;8.90;3.50;;;;;;;10.18;85.45;100434.21;105769;1257;71296;-71
2023/06/06 01:16:49;;;;;;;9.70;3.60;;;;;;;10.16;85.77;100435.64;105948;1259;67879;-72
2023/06/06 01:19:41;;;;;;;10.90;3.80;;;;;;;10.14;85.87;100432.97;105635;1253;72457;-73
2023/06/06 01:22:29;;;;;;;10.10;3.30;;;;;;;10.12;85.78;100432.39;105787;1253;61035;-74
2023/06/06 01:25:19;;;;;;;8.40;3.40;;;;;;;10.09;85.68;100432.02;105948;1254;59312;-71
2023/06/06 01:28:13;;;;;;;9.40;4.10;;;;;;;10.08;85.93;100431.77;105615;1255;71438;-71
2023/06/06 01:31:00;;;;;;;10.30;3.80;;;;;;;10.07;85.89;100434.86;105760;1257;67646;-71
2023/06/06 01:33:59;;;;;;;9.90;3.10;;;;;;;10.06;85.83;100434.02;105691;1254;73903;-69
2023/06/06 01:36:59;;;;;;;7.50;3.30;;;;;;;10.06;85.32;100435.63;105665;1253;59894;-73
2023/06/06 01:39:48;;;;;;;9.00;3.30;;;;;;;10.05;85.22;100433.37;105902;1256;59326;-74
2023/06/06 01:42:43;;;;;;;8.70;3.90;;;;;;;10.06;84.95;100434.38;105932;1253;71273;-71
2023/06/06 01:45:32;;;;;;;8.80;3.20;;;;;;;10.05;84.75;100432.33;104976;1258;1003001;-71
2023/06/06 01:48:20;;;;;;;10.50;3.40;;;;;;;10.03;84.47;100431.52;105792;1255;72706;-73
2023/06/06 01:51:06;;;;;;;8.20;3.00;;;;;;;10.02;84.65;100427.71;105912;1261;59682;-71
2023/06/06 01:53:57;;;;;;;8.90;3.20;;;;;;;10.02;84.11;100432.35;105871;1253;60670;-72
2023/06/06 01:56:44;;;;;;;8.30;3.20;;;;;;;10.03;84.25;100429.59;105923;1253;70027;-73
2023/06/06 01:59:31;;;;;;;7.80;3.30;;;;;;;10.05;83.87;100426.45;105885;1259;67713;-72
2023/06/06 02:02:19;;;;;;;9.30;3.40;;;;;;;10.06;84.01;100426.23;105726;1253;72407;-73
2023/06/06 02:05:06;;;;;;;9.30;3.20;;;;;;;10.06;83.90;100422.87;105651;1262;59242;-72
2023/06/06 02:07:53;;;;;;;7.50;3.20;;;;;;;10.06;83.90;100429.96;105625;1253;60209;-73
2023/06/06 02:10:42;;;;;;;9.40;3.10;;;;;;;10.07;83.78;100426.17;105677;1253;71272;-72
2023/06/06 02:13:29;;;;;;;8.90;3.60;;;;;;;10.09;83.97;100418.77;105682;1253;67944;-72
2023/06/06 02:16:15;;;;;;;9.10;3.20;;;;;;;10.10;83.96;100417.95;105662;1254;72760;-71
2023/06/06 02:19:04;;;;;;;9.70;3.20;;;;;;;10.13;83.79;100417.77;105462;1259;59394;-70
2023/06/06 02:21:51;;;;;;;8.90;3.50;;;;;;;10.14;83.98;100410.07;105645;1253;59343;-70
2023/06/06 02:24:40;;;;;;;10.60;3.90;;;;;;;10.21;83.71;100413.98;105616;1257;69139;-74
2023/06/06 02:27:29;;;;;;;9.40;3.70;;;;;;;10.26;83.54;100415.83;105606;1254;67913;-73
2023/06/06 02:30:16;;;;;;;10.80;3.80;;;;;;;10.29;83.67;100411.88;105834;1259;72754;-72
2023/06/06 02:33:03;;;;;;;10.70;3.70;;;;;;;10.34;83.76;100415.06;106010;1254;59356;-73
2023/06/06 02:35:50;;;;;;;9.70;3.40;;;;;;;10.37;83.78;100408.08;105962;1260;59166;-72
2023/06/06 02:38:38;;;;;;;10.50;4.00;;;;;;;10.41;83.89;100411.55;105808;1256;70310;-72
2023/06/06 02:41:26;;;;;;;9.80;3.60;;;;;;;10.44;83.43;100411.35;106002;1254;66629;-71
2023/06/06 02:44:13;;;;;;;10.30;3.60;;;;;;;10.49;83.78;100411.02;106279;1257;71038;-72
2023/06/06 02:47:00;;;;;;;11.00;3.80;;;;;;;10.54;83.23;100409.75;105096;1256;1057372;-74
2023/06/06 02:49:47;;;;;;;9.50;3.80;;;;;;;10.60;83.61;100408.98;106010;1258;59254;-71
2023/06/06 02:52:38;;;;;;;10.90;4.20;;;;;;;10.67;83.27;100408.79;106848;1254;70161;-75
2023/06/06 02:55:25;;;;;;;11.10;3.70;;;;;;;10.74;82.97;100407.40;106913;1257;66417;-74
2023/06/06 02:58:30;;;;;;;9.90;3.40;;;;;;;10.85;82.80;100400.91;106253;1257;71389;-73
2023/06/06 03:01:20;;;;;;;10.10;3.90;;;;;;;10.97;82.53;100399.02;106044;1258;59251;-74
2023/06/06 03:04:11;;;;;;;10.00;3.20;;;;;;;11.07;81.90;100397.20;105722;1254;60174;-72
2023/06/06 03:07:00;;;;;;;9.00;3.50;;;;;;;11.18;80.78;100396.88;105645;1256;71076;-71
2023/06/06 03:09:47;;;;;;;7.60;3.40;;;;;;;11.29;80.67;100391.27;105716;1256;68785;-70
2023/06/06 03:12:38;;;;;;;9.50;3.10;;;;;;;11.39;80.03;100392.48;105879;1254;72591;-70
2023/06/06 03:15:28;;;;;;;9.20;3.00;;;;;;;11.42;79.64;100388.38;105902;1256;59225;-73
2023/06/06 03:18:17;;;;;;;10.00;3.40;;;;;;;11.55;79.08;100395.18;105726;1264;59835;-72
2023/06/06 03:21:04;;;;;;;8.80;3.70;;;;;;;11.62;78.78;100393.95;105930;1255;71934;-70
2023/06/06 03:23:56;;;;;;;10.10;3.80;;;;;;;11.72;78.36;100393.69;105775;1255;66634;-70
2023/06/06 03:26:46;;;;;;;10.30;3.80;;;;;;;11.83;77.82;100391.83;105911;1259;72752;-71
2023/06/06 03:29:34;;;;;;;10.80;3.30;;;;;;;11.94;77.12;100388.84;105756;1256;59309;-74
2023/06/06 03:32:23;;;;;;;7.50;3.50;;;;;;;12.06;76.51;100391.84;105758;1257;59342;-74
2023/06/06 03:35:14;;;;;;;7.30;2.80;;;;;;;12.17;76.11;100392.16;105641;1258;71549;-75
2023/06/06 03:38:02;;;;;;;7.00;3.00;;;;;;;12.30;74.86;100391.16;105659;1263;66492;-73
2023/06/06 03:40:50;;;;;;;7.00;2.70;;;;;;;12.42;74.49;100393.77;106015;1258;72630;-72
2023/06/06 03:43:38;;;;;;;9.20;3.20;;;;;;;12.53;73.68;100392.15;105969;1257;59329;-73
2023/06/06 03:46:25;;;;;;;8.60;2.90;;;;;;;12.66;73.08;100393.85;105957;1259;60633;-72
2023/06/06 03:49:13;;;;;;;10.00;3.30;;;;;;;12.76;72.56;100392.30;105719;1256;73669;-70
2023/06/06 03:52:13;;;;;;;9.00;3.60;;;;;;;12.88;72.23;100396.27;105683;1259;67972;-72
2023/06/06 03:55:01;;;;;;;8.10;2.90;;;;;;;12.99;71.63;100393.46;105776;1254;72535;-69
2023/06/06 03:57:53;;;;;;;9.50;2.80;;;;;;;13.11;71.20;100393.34;105964;1257;59414;-67
2023/06/06 04:00:45;;;;;;;7.50;3.00;;;;;;;13.22;70.44;100389.20;105737;1254;60120;-73
2023/06/06 04:03:37;;;;;;;9.80;3.10;;;;;;;13.32;70.02;100383.08;106031;1259;72667;-69
2023/06/06 04:06:43;;;;;;;9.10;3.40;;;;;;;13.46;69.51;100388.16;105829;1257;68468;-71
2023/06/06 04:09:31;;;;;;;7.80;3.00;;;;;;;13.57;68.83;100390.80;105446;1258;72774;-71
2023/06/06 04:12:18;;;;;;;7.60;2.80;;;;;;;13.69;67.68;100386.95;105585;1254;59276;-71
2023/06/06 04:15:09;;;;;;;8.80;3.10;;;;;;;13.80;67.30;100386.29;105619;1254;60068;-67
2023/06/06 04:17:56;;;;;;;7.70;2.90;;;;;;;13.93;66.77;100383.05;105594;1261;72079;-69
2023/06/06 04:20:45;;;;;;;9.40;3.30;;;;;;;14.06;65.88;100383.00;105650;1261;66688;-71
2023/06/06 04:23:32;;;;;;;12.80;3.60;;;;;;;14.20;64.95;100381.80;105409;1257;71410;-73
2023/06/06 04:26:24;;;;;;;7.90;2.80;;;;;;;14.37;64.19;100383.66;105790;1256;59222;-73
2023/06/06 04:29:15;;;;;;;8.90;2.90;;;;;;;14.59;63.15;100381.05;105957;1259;59323;-72
2023/06/06 04:32:04;;;;;;;8.80;3.10;;;;;;;14.85;62.13;100377.83;105583;1256;73683;-70
2023/06/06 04:34:52;;;;;;;9.10;2.80;;;;;;;15.16;60.71;100373.02;105827;1256;66512;-71
2023/06/06 04:37:47;;;;;;;7.40;2.70;;;;;;;15.52;59.26;100372.20;106139;1258;72366;-73
2023/06/06 04:40:38;;;;;;;9.10;3.10;;;;;;;15.91;57.36;100361.27;105986;1260;60131;-75
2023/06/06 04:43:49;;;;;;;9.30;2.40;;;;;;;16.55;55.91;100376.74;105752;1262;59358;-75
2023/06/06 04:46:37;;;;;;;7.60;2.70;;;;;;;17.21;53.63;100372.21;105556;1254;72020;-73
2023/06/06 04:49:25;;;;;;;9.40;2.80;;;;;;;17.87;50.34;100374.86;105600;1259;67642;-72
2023/06/06 04:52:15;;;;;;;9.10;2.90;;;;;;;18.50;48.61;100372.59;105567;1256;72718;-73
2023/06/06 04:55:03;;;;;;;7.90;2.80;;;;;;;19.19;46.35;100364.38;105584;1256;59376;-73
2023/06/06 04:57:50;;;;;;;7.30;2.30;;;;;;;19.78;44.64;100366.46;105776;1259;59365;-72
2023/06/06 05:00:38;;;;;;;9.00;2.40;;;;;;;20.40;42.91;100364.23;105409;1256;72214;-74
2023/06/06 05:03:27;;;;;;;7.60;2.30;;;;;;;20.97;40.80;100365.72;105648;1255;67935;-72
2023/06/06 05:06:14;;;;;;;9.30;2.10;;;;;;;21.56;39.69;100359.92;105630;1259;72692;-75
2023/06/06 05:09:04;;;;;;;8.80;2.40;;;;;;;22.14;38.50;100361.69;105934;1260;59105;-72
2023/06/06 05:11:54;;;;;;;6.90;2.20;;;;;;;22.78;37.03;100356.47;105758;1259;59732;-71
2023/06/06 05:14:41;;;;;;;6.50;2.40;;;;;;;23.23;35.77;100352.89;105730;1262;72171;-73
2023/06/06 05:17:30;;;;;;;8.90;2.40;;;;;;;23.66;34.79;100345.83;105959;1262;68022;-74
2023/06/06 05:20:19;;;;;;;7.90;2.40;;;;;;;24.12;33.69;100345.80;106070;1257;71143;-77
2023/06/06 05:23:06;;;;;;;7.10;2.20;;;;;;;24.60;32.96;100346.36;106450;1257;59207;-73
2023/06/06 05:25:56;;;;;;;8.70;2.20;;;;;;;25.20;31.93;100345.82;106266;1260;58899;-74
2023/06/06 05:28:43;;;;;;;7.00;2.20;;;;;;;25.61;30.23;100344.69;106316;1261;72279;-77
2023/06/06 05:31:30;;;;;;;8.00;2.50;;;;;;;26.15;29.35;100346.34;106407;1260;66509;-75
2023/06/06 05:34:19;;;;;;;9.10;2.20;;;;;;;26.56;28.77;100343.63;105618;1260;72868;-75
2023/06/06 05:37:06;;;;;;;7.40;1.90;;;;;;;27.06;28.33;100343.48;105765;1258;59231;-73
2023/06/06 05:39:53;;;;;;;8.40;2.00;;;;;;;27.63;27.41;100344.98;105572;1262;59138;-72
2023/06/06 05:42:40;;;;;;;9.70;2.40;;;;;;;28.20;26.96;100345.11;105230;1259;70945;-69
2023/06/06 05:45:26;;;;;;;7.20;1.90;;;;;;;28.82;25.49;100346.67;105814;1262;67912;-67
2023/06/06 05:48:13;;;;;;;7.00;1.90;;;;;;;28.89;24.36;100345.44;105964;1260;72976;-67
2023/06/06 05:51:00;;;;;;;7.20;1.80;;;;;;;29.15;24.32;100347.06;106030;1254;59369;-69
2023/06/06 05:53:54;;;;;;;7.70;2.00;;;;;;;29.55;23.82;100344.35;105895;1255;59784;-71
2023/06/06 05:56:59;;;;;;;8.90;2.10;;;;;;;29.49;23.56;100346.46;106063;1259;72375;-70
2023/06/06 05:59:48;;;;;;;8.10;1.80;;;;;;;29.75;23.67;100347.61;105645;1254;67940;-71
2023/06/06 06:02:36;;;;;;;9.90;2.20;;;;;;;30.32;23.32;100351.96;106025;1253;72683;-71
2023/06/06 06:05:28;;;;;;;7.50;2.20;;;;;;;30.66;22.63;100352.27;105618;1259;59228;-72
2023/06/06 06:08:15;;;;;;;8.20;2.00;;;;;;;30.85;22.16;100355.16;105868;1256;59267;-73
2023/06/06 06:11:03;;;;;;;8.90;2.10;;;;;;;30.69;22.16;100359.89;105716;1260;72127;-74
2023/06/06 06:13:50;;;;;;;9.20;2.40;;;;;;;31.13;22.19;100352.73;105774;1253;67723;-73
2023/06/06 06:16:37;;;;;;;9.70;2.10;;;;;;;31.68;21.84;100350.37;105633;1253;72391;-73
2023/06/06 06:19:24;;;;;;;7.40;1.90;;;;;;;32.23;21.10;100348.59;106177;1258;59154;-72
2023/06/06 06:22:10;;;;;;;9.50;2.20;;;;;;;32.56;20.66;100353.33;105761;1253;60022;-73
2023/06/06 06:24:57;;;;;;;8.50;2.20;;;;;;;32.72;20.16;100351.64;105489;1259;72319;-73
2023/06/06 06:27:45;;;;;;;7.00;1.90;;;;;;;32.83;20.20;100351.27;105561;1258;66637;-71
2023/06/06 06:30:33;;;;;;;10.30;2.20;;;;;;;32.76;19.88;100352.50;106223;1258;72615;-72
2023/06/06 06:33:22;;;;;;;9.60;2.30;;;;;;;32.83;20.17;100353.24;105538;1260;59522;-73
2023/06/06 06:36:09;;;;;;;10.40;1.70;;;;;;;33.13;20.29;100349.48;105734;1259;60040;-73
2023/06/06 06:38:57;;;;;;;8.70;1.90;;;;;;;32.91;19.61;100350.23;105366;1257;70925;-70
2023/06/06 06:41:46;;;;;;;8.30;2.10;;;;;;;32.96;19.91;100350.39;105430;1262;66366;-73
2023/06/06 06:44:33;;;;;;;10.50;2.00;;;;;;;33.10;19.69;100348.03;105492;1260;72524;-73
2023/06/06 06:47:20;;;;;;;7.80;1.80;;;;;;;33.18;19.61;100343.58;105400;1262;59346;-73
2023/06/06 06:50:08;;;;;;;9.20;2.10;;;;;;;33.33;19.72;100345.10;105409;1257;60087;-72
2023/06/06 06:52:56;;;;;;;7.80;1.90;;;;;;;33.74;19.52;100347.20;105698;1260;70702;-74
2023/06/06 06:55:52;;;;;;;6.50;1.90;;;;;;;33.92;18.55;100343.50;105739;1254;66734;-74
2023/06/06 06:58:44;;;;;;;7.10;1.80;;;;;;;33.68;18.61;100342.52;105918;1254;74083;-70
2023/06/06 07:01:33;;;;;;;9.50;1.70;;;;;;;33.41;19.12;100339.71;105629;1259;59265;-72
2023/06/06 07:04:20;;;;;;;6.10;1.70;;;;;;;33.70;18.83;100342.04;105664;1253;60169;-72
2023/06/06 07:07:07;;;;;;;8.70;2.10;;;;;;;33.83;18.57;100335.07;105686;1254;74131;-73
2023/06/06 07:09:53;;;;;;;10.10;1.80;;;;;;;34.01;18.39;100338.79;105588;1261;66596;-71
2023/06/06 07:12:41;;;;;;;12.20;1.90;;;;;;;34.51;18.43;100337.84;105996;1258;72571;-71
2023/06/06 07:15:28;;;;;;;7.50;1.70;;;;;;;35.00;17.63;100341.75;105535;1254;59337;-72
2023/06/06 07:18:15;;;;;;;9.00;1.90;;;;;;;35.43;17.30;100345.55;105659;1253;60049;-71
2023/06/06 07:21:05;;;;;;;6.70;1.60;;;;;;;35.67;16.82;100344.29;106186;1261;72271;-73
2023/06/06 07:23:52;;;;;;;7.30;1.60;;;;;;;35.86;16.54;100346.36;105893;1254;66498;-74
2023/06/06 07:26:39;;;;;;;6.90;1.50;;;;;;;35.72;16.34;100347.23;105729;1259;72491;-72
2023/06/06 07:29:27;;;;;;;11.50;1.70;;;;;;;35.57;16.66;100350.80;105849;1254;59263;-73
2023/06/06 07:32:14;;;;;;;9.60;1.80;;;;;;;35.37;16.77;100346.06;105712;1262;60100;-72
2023/06/06 07:35:01;;;;;;;8.80;2.10;;;;;;;35.61;16.89;100345.86;105737;1256;72219;-71
2023/06/06 07:37:48;;;;;;;10.20;1.90;;;;;;;35.93;16.60;100343.37;106325;1259;67872;-70
2023/06/06 07:40:36;;;;;;;6.70;1.60;;;;;;;35.97;16.30;100340.75;105894;1254;71639;-72
2023/06/06 07:43:26;;;;;;;9.70;1.70;;;;;;;36.13;16.29;100336.58;105655;1262;59316;-72
2023/06/06 07:46:14;;;;;;;7.50;1.70;;;;;;;36.34;16.10;100342.98;105658;1259;59317;-72
2023/06/06 07:49:01;;;;;;;7.80;2.20;;;;;;;36.51;15.84;100338.80;105597;1253;71947;-72
2023/06/06 07:51:48;;;;;;;8.90;1.60;;;;;;;36.41;15.64;100341.95;105573;1256;66325;-71
2023/06/06 07:54:37;;;;;;;6.30;1.60;;;;;;;36.26;15.89;100338.08;105913;1258;72507;-70
2023/06/06 07:57:25;;;;;;;6.80;1.70;;;;;;;36.14;15.83;100332.48;105543;1253;59279;-71
2023/06/06 08:00:13;;;;;;;7.10;1.90;;;;;;;36.50;15.73;100329.42;105710;1255;59180;-70
2023/06/06 08:03:00;;;;;;;8.80;1.70;;;;;;;36.81;15.36;100330.45;105733;1261;72298;-73
2023/06/06 08:05:47;;;;;;;8.00;1.60;;;;;;;36.89;15.13;100331.08;105862;1264;68413;-73
2023/06/06 08:08:38;;;;;;;6.70;1.90;;;;;;;37.30;14.66;100329.71;105743;1262;70744;-72
2023/06/06 08:11:26;;;;;;;8.00;1.40;;;;;;;37.13;14.49;100328.64;105703;1254;59269;-69
2023/06/06 08:14:14;;;;;;;7.90;1.50;;;;;;;37.49;14.54;100327.56;105948;1259;59221;-71
2023/06/06 08:17:05;;;;;;;9.50;1.80;;;;;;;37.60;13.96;100324.65;105743;1254;70942;-72
2023/06/06 08:19:52;;;;;;;10.40;1.80;;;;;;;37.84;13.93;100324.30;105641;1256;67748;-69
2023/06/06 08:22:48;;;;;;;10.00;1.50;;;;;;;38.17;14.10;100324.73;105912;1254;72989;-69
2023/06/06 08:25:41;;;;;;;7.60;1.90;;;;;;;37.62;14.25;100322.69;105624;1253;59237;-70
2023/06/06 08:28:28;;;;;;;5.60;1.40;;;;;;;37.07;14.25;100321.93;105967;1253;59239;-71
2023/06/06 08:31:16;;;;;;;11.30;2.00;;;;;;;37.08;14.48;100318.05;105592;1263;72045;-72
2023/06/06 08:34:02;;;;;;;9.00;1.60;;;;;;;37.01;14.24;100312.17;105450;1261;67867;-70
2023/06/06 08:36:50;;;;;;;8.00;1.70;;;;;;;37.05;14.08;100311.03;105261;1259;71304;-70
2023/06/06 08:39:38;;;;;;;9.70;1.90;;;;;;;37.25;14.31;100305.09;105414;1259;59242;-73
2023/06/06 08:42:29;;;;;;;7.50;1.60;;;;;;;37.59;14.00;100303.41;105461;1258;59355;-70
2023/06/06 08:45:21;;;;;;;10.00;1.70;;;;;;;37.27;13.83;100307.22;105774;1262;70731;-70
2023/06/06 08:48:11;;;;;;;6.30;1.70;;;;;;;37.00;14.05;100298.48;105485;1263;67987;-72
2023/06/06 08:51:04;;;;;;;7.70;2.20;;;;;;;37.38;14.44;100299.02;105321;1262;72484;-71
2023/06/06 08:53:52;;;;;;;8.30;1.70;;;;;;;38.00;13.84;100294.17;105504;1271;59379;-71
2023/06/06 08:56:43;;;;;;;8.10;1.80;;;;;;;38.14;13.54;100297.02;105500;1259;60623;-71
2023/06/06 08:59:31;;;;;;;7.50;1.60;;;;;;;37.88;13.57;100293.98;105672;1263;70641;-73
2023/06/06 09:02:18;;;;;;;8.00;1.50;;;;;;;38.14;13.83;100293.82;105765;1259;67669;-71
2023/06/06 09:05:07;;;;;;;9.60;1.70;;;;;;;38.68;13.31;100290.38;105589;1260;72542;-71
2023/06/06 09:07:54;;;;;;;5.70;1.50;;;;;;;39.11;12.67;100296.35;105915;1259;59168;-70
2023/06/06 09:10:41;;;;;;;8.90;1.60;;;;;;;39.18;12.22;100296.62;105937;1258;59301;-73
2023/06/06 09:13:27;;;;;;;8.00;1.50;;;;;;;37.96;12.80;100291.59;105784;1256;70729;-73
2023/06/06 09:16:17;;;;;;;6.70;1.40;;;;;;;36.38;14.07;100291.56;105632;1260;67726;-72
2023/06/06 09:19:08;;;;;;;6.50;1.60;;;;;;;34.83;15.14;100292.90;105762;1254;71654;-71
2023/06/06 09:22:01;;;;;;;10.10;2.00;;;;;;;33.79;16.10;100287.12;105660;1264;59291;-73
2023/06/06 09:24:49;;;;;;;10.20;4.90;;;;;;;33.40;16.64;100286.09;105701;1260;61534;-69
2023/06/06 09:27:36;;;;;;;10.80;5.30;;;;;;;33.11;16.77;100288.12;105989;1254;70947;-70
2023/06/06 09:30:25;;;;;;;10.00;2.50;;;;;;;32.49;17.27;100288.60;105877;1254;66218;-70
2023/06/06 09:33:14;;;;;;;7.10;2.00;;;;;;;31.85;18.36;100291.58;105712;1260;72722;-71
2023/06/06 09:36:04;;;;;;;8.00;1.80;;;;;;;31.13;18.59;100294.91;105570;1254;59594;-72
2023/06/06 09:38:52;;;;;;;8.10;2.60;;;;;;;30.77;21.83;100289.25;105710;1263;59653;-72
2023/06/06 09:41:47;;;;;;;7.40;2.20;;;;;;;31.77;22.40;100281.55;105656;1257;70895;-71
2023/06/06 09:44:34;;;;;;;9.20;2.70;;;;;;;33.10;21.28;100285.46;105683;1260;66472;-71
2023/06/06 09:47:21;;;;;;;9.50;2.80;;;;;;;34.14;20.06;100284.68;105754;1258;71334;-69
2023/06/06 09:50:10;;;;;;;9.00;2.40;;;;;;;34.36;20.64;100282.55;105634;1262;59340;-72
2023/06/06 09:52:58;;;;;;;8.70;2.50;;;;;;;33.71;22.09;100277.82;105673;1260;59324;-71
2023/06/06 09:55:46;;;;;;;8.20;2.70;;;;;;;33.06;22.97;100275.17;105731;1254;70658;-71
2023/06/06 09:58:35;;;;;;;9.10;2.40;;;;;;;32.80;23.69;100281.19;105741;1254;66356;-72
2023/06/06 10:01:33;;;;;;;10.40;2.40;;;;;;;33.82;22.43;100275.05;105666;1267;72876;-71
2023/06/06 10:04:20;;;;;;;8.90;2.60;;;;;;;34.49;21.53;100276.45;105574;1254;59340;-71
2023/06/06 10:07:09;;;;;;;9.20;2.70;;;;;;;33.98;22.12;100272.15;105768;1255;60222;-70
2023/06/06 10:09:57;;;;;;;8.80;2.50;;;;;;;33.37;22.90;100269.73;105718;1254;72253;-69
2023/06/06 10:12:44;;;;;;;10.40;2.40;;;;;;;33.81;21.98;100275.92;105706;1261;67021;-70
2023/06/06 10:15:31;;;;;;;8.10;2.10;;;;;;;34.48;20.40;100275.63;105853;1253;71883;-73
2023/06/06 10:18:19;;;;;;;9.20;2.30;;;;;;;33.96;20.95;100270.05;105725;1260;59240;-71
2023/06/06 10:21:08;;;;;;;8.10;2.30;;;;;;;33.63;21.44;100272.25;105726;1259;60175;-73
2023/06/06 10:23:55;;;;;;;11.70;2.60;;;;;;;32.93;22.43;100269.66;105655;1256;72005;-72
2023/06/06 10:26:50;;;;;;;11.20;2.50;;;;;;;33.02;22.69;100268.64;105676;1267;67848;-70
2023/06/06 10:29:49;;;;;;;11.80;2.30;;;;;;;34.17;21.89;100267.03;105746;1259;232688;-71
2023/06/06 10:33:34;;;;;;;7.50;2.10;;;;;;;35.17;20.72;100268.09;105793;1260;59314;-72
2023/06/06 10:36:21;;;;;;;7.50;2.30;;;;;;;34.66;21.05;100261.34;105191;1265;59266;-72
2023/06/06 10:39:22;;;;;;;9.80;2.20;;;;;;;33.55;21.11;100261.38;105241;1266;71009;-71
2023/06/06 10:42:10;;;;;;;8.20;2.20;;;;;;;32.32;22.48;100258.95;105449;1266;67711;-73
2023/06/06 10:44:58;;;;;;;9.00;2.10;;;;;;;31.26;23.59;100252.64;105267;1274;71139;-71
2023/06/06 10:47:44;;;;;;;8.30;2.20;;;;;;;30.95;24.36;100249.45;105272;1261;59270;-70
2023/06/06 10:50:35;;;;;;;7.60;2.60;;;;;;;30.62;24.97;100251.38;105261;1262;60257;-74
2023/06/06 10:53:22;;;;;;;10.60;2.20;;;;;;;30.52;25.28;100250.89;105192;1276;73670;-74
2023/06/06 10:56:29;;;;;;;8.20;2.50;;;;;;;31.72;24.37;100248.21;105271;1261;67829;-72
2023/06/06 10:59:16;;;;;;;11.20;2.40;;;;;;;32.50;23.64;100245.15;105524;1266;71518;-72
2023/06/06 11:02:31;;;;;;;9.40;2.60;;;;;;;31.59;24.73;100247.87;105264;1266;59331;-74
2023/06/06 11:05:21;;;;;;;9.40;2.30;;;;;;;30.43;25.81;100254.13;105794;1264;59576;-72
2023/06/06 11:08:08;;;;;;;9.50;2.80;;;;;;;29.61;27.10;100242.55;105753;1257;71228;-72
2023/06/06 11:11:30;;;;;;;7.80;3.00;;;;;;;29.85;26.37;100244.66;105475;1261;66392;-72
2023/06/06 11:14:22;;;;;;;8.80;2.40;;;;;;;29.56;26.83;100240.53;105457;1264;71225;-70
2023/06/06 11:17:11;;;;;;;9.60;2.10;;;;;;;29.12;26.84;100236.09;105630;1258;59231;-73
2023/06/06 11:20:03;;;;;;;7.30;2.30;;;;;;;28.55;27.33;100236.41;105463;1259;60233;-73
2023/06/06 11:23:02;;;;;;;8.10;2.20;;;;;;;28.70;27.29;100229.29;105576;1261;71542;-73
2023/06/06 11:25:50;;;;;;;7.90;2.40;;;;;;;29.22;25.71;100230.87;105624;1263;67731;-71
2023/06/06 11:28:38;;;;;;;7.80;3.10;;;;;;;29.83;25.60;100223.49;105720;1255;72390;-73
2023/06/06 11:31:26;;;;;;;10.60;3.10;;;;;;;30.47;25.00;100219.03;105618;1260;59333;-74
2023/06/06 11:34:15;;;;;;;8.20;2.30;;;;;;;30.85;23.39;100216.71;105746;1254;59311;-71
2023/06/06 11:37:03;;;;;;;6.50;2.20;;;;;;;30.63;23.67;100210.98;105706;1260;70973;-71
2023/06/06 11:39:51;;;;;;;8.50;2.20;;;;;;;30.12;24.69;100209.70;105729;1262;66464;-72
2023/06/06 11:42:44;;;;;;;9.30;2.90;;;;;;;29.71;25.52;100209.32;105663;1263;72998;-72
2023/06/06 11:45:31;;;;;;;11.20;5.80;;;;;;;29.50;26.02;100207.58;105626;1263;59303;-70
2023/06/06 11:48:27;;;;;;;7.40;2.50;;;;;;;29.31;25.86;100200.80;105837;1254;60427;-74
2023/06/06 11:51:16;;;;;;;7.30;2.30;;;;;;;29.16;26.14;100197.96;105624;1260;72076;-72
2023/06/06 11:54:18;;;;;;;7.60;2.60;;;;;;;28.95;26.58;100199.18;105667;1263;67225;-72
2023/06/06 11:57:07;;;;;;;8.90;2.70;;;;;;;28.66;27.06;100196.52;105812;1259;72009;-71
2023/06/06 11:59:59;;;;;;;9.50;2.50;;;;;;;28.31;27.82;100194.00;105847;1254;59206;-70
2023/06/06 12:02:52;;;;;;;9.00;2.30;;;;;;;27.94;28.27;100195.21;105684;1259;59335;-70
2023/06/06 12:05:41;;;;;;;9.10;2.20;;;;;;;27.65;28.29;100196.67;105638;1260;72138;-70
2023/06/06 12:08:33;;;;;;;7.90;2.60;;;;;;;27.46;28.02;100198.36;105826;1257;67267;-69
2023/06/06 12:11:26;;;;;;;8.90;2.40;;;;;;;27.24;27.44;100195.76;105794;1262;73271;-69
2023/06/06 12:14:13;;;;;;;7.60;2.50;;;;;;;27.03;28.64;100195.13;105836;1259;59311;-69
2023/06/06 12:17:10;;;;;;;6.40;2.20;;;;;;;26.78;28.58;100197.16;105943;1258;60706;-71
2023/06/06 12:19:57;;;;;;;8.30;2.30;;;;;;;26.51;29.55;100199.02;106148;1258;73214;-72
2023/06/06 12:22:49;;;;;;;6.80;2.60;;;;;;;26.41;29.90;100201.53;105682;1257;68306;-71
2023/06/06 12:25:36;;;;;;;8.50;2.30;;;;;;;26.57;30.60;100201.16;105778;1254;71458;-70
2023/06/06 12:28:23;;;;;;;8.20;2.60;;;;;;;26.81;30.43;100199.83;106027;1254;59236;-72
2023/06/06 12:31:21;;;;;;;8.90;2.10;;;;;;;27.05;30.69;100199.44;105876;1258;59183;-70
2023/06/06 12:34:09;;;;;;;8.80;2.40;;;;;;;27.15;30.99;100200.94;105927;1253;70751;-70
2023/06/06 12:36:57;;;;;;;7.40;2.30;;;;;;;27.12;31.32;100200.75;105848;1262;66551;-70
2023/06/06 12:39:45;;;;;;;7.90;2.30;;;;;;;26.98;31.84;100197.48;109291;1254;72706;-70
2023/06/06 12:42:32;;;;;;;7.00;2.50;;;;;;;26.59;32.68;100206.23;109345;1254;57949;-71
2023/06/06 12:45:20;;;;;;;7.80;2.20;;;;;;;26.25;32.91;100216.45;109452;1254;60228;-71
2023/06/06 12:48:09;;;;;;;10.80;2.60;;;;;;;26.16;33.15;100218.56;109299;1253;72308;-71
2023/06/06 12:50:57;;;;;;;6.30;2.40;;;;;;;26.23;33.14;100217.91;108518;1254;1002740;-71
2023/06/06 12:53:46;;;;;;;8.20;2.60;;;;;;;26.11;32.90;100217.54;109159;1254;74372;-73
2023/06/06 12:56:33;;;;;;;7.20;2.30;;;;;;;25.92;32.59;100219.56;109293;1254;57671;-70